Detroit, Michigan
Traffic Map
Current Weather Conditions
Detroit, Michigan
Overcast
Overcast
32°
Feels Like: 24°
Wind Chill: 24° Ceiling: 2600
Heat Index: 32° Visibility: 9mi
Dew Point: 28° Wind: 9mph
Humidity: 87% Direction: 270° (W)
Pressure: 30.14in Gusts: 0mph
Raw Report DataCYQG 161500Z AUTO 27008KT 9SM FEW016 SCT022 BKN026 OVC039M00/M02 A3014 RMK SLP216
Traffic Incident Summary
Active as of:
Severity:
Category:
InformationThere was an issue retrieving the traffic information for this location. Please try a different location or try again shortly.
Advertisements